sensor_id;sensor_type;location;lat;lon;timestamp;pressure;altitude;pressure_sealevel;temperature;humidity
5609;BME280;2826;51.354;9.588;2022-09-17T00:00:58;97416.34;;;9.10;100.00
5609;BME280;2826;51.354;9.588;2022-09-17T00:03:25;97418.09;;;9.09;100.00
5609;BME280;2826;51.354;9.588;2022-09-17T00:05:58;97416.34;;;9.10;100.00
5609;BME280;2826;51.354;9.588;2022-09-17T00:08:25;97422.22;;;9.13;100.00
5609;BME280;2826;51.354;9.588;2022-09-17T00:10:51;97411.13;;;9.11;100.00
5609;BME280;2826;51.354;9.588;2022-09-17T00:13:18;97409.28;;;9.13;100.00
5609;BME280;2826;51.354;9.588;2022-09-17T00:15:46;97418.88;;;9.11;100.00
5609;BME280;2826;51.354;9.588;2022-09-17T00:18:14;97412.97;;;9.08;100.00
5609;BME280;2826;51.354;9.588;2022-09-17T00:20:43;97409.84;;;9.01;100.00
5609;BME280;2826;51.354;9.588;2022-09-17T00:23:11;97417.59;;;9.01;100.00
5609;BME280;2826;51.354;9.588;2022-09-17T00:25:40;97421.78;;;9.04;100.00
5609;BME280;2826;51.354;9.588;2022-09-17T00:28:07;97400.16;;;8.87;100.00
5609;BME280;2826;51.354;9.588;2022-09-17T00:30:34;97427.53;;;9.10;100.00
5609;BME280;2826;51.354;9.588;2022-09-17T00:33:01;97424.19;;;9.08;100.00
5609;BME280;2826;51.354;9.588;2022-09-17T00:35:29;97420.69;;;9.09;100.00
5609;BME280;2826;51.354;9.588;2022-09-17T00:37:56;97422.63;;;9.04;100.00
5609;BME280;2826;51.354;9.588;2022-09-17T00:40:23;97414.88;;;9.04;100.00
5609;BME280;2826;51.354;9.588;2022-09-17T00:42:49;97423.56;;;9.03;100.00
5609;BME280;2826;51.354;9.588;2022-09-17T00:45:18;97414.69;;;9.09;100.00
5609;BME280;2826;51.354;9.588;2022-09-17T00:47:49;97408.78;;;9.05;100.00
5609;BME280;2826;51.354;9.588;2022-09-17T00:50:21;97413.34;;;9.00;100.00
5609;BME280;2826;51.354;9.588;2022-09-17T00:52:55;97417.81;;;8.96;100.00
5609;BME280;2826;51.354;9.588;2022-09-17T00:55:25;97416.28;;;8.92;100.00
5609;BME280;2826;51.354;9.588;2022-09-17T00:57:56;97418.09;;;8.90;100.00
5609;BME280;2826;51.354;9.588;2022-09-17T01:00:25;97417.94;;;8.93;100.00
5609;BME280;2826;51.354;9.588;2022-09-17T01:02:52;97423.06;;;8.95;100.00
5609;BME280;2826;51.354;9.588;2022-09-17T01:05:26;97417.81;;;8.96;100.00
5609;BME280;2826;51.354;9.588;2022-09-17T01:08:06;97415.25;;;8.96;100.00
5609;BME280;2826;51.354;9.588;2022-09-17T01:10:58;97424.78;;;8.94;100.00
5609;BME280;2826;51.354;9.588;2022-09-17T01:13:34;97425.78;;;8.92;100.00
5609;BME280;2826;51.354;9.588;2022-09-17T01:16:06;97414.38;;;8.96;100.00
5609;BME280;2826;51.354;9.588;2022-09-17T01:18:50;97425.78;;;8.92;100.00
5609;BME280;2826;51.354;9.588;2022-09-17T01:21:43;97424.59;;;8.99;100.00
5609;BME280;2826;51.354;9.588;2022-09-17T01:24:43;97426.13;;;9.03;100.00
5609;BME280;2826;51.354;9.588;2022-09-17T01:27:44;97425.34;;;9.01;100.00
5609;BME280;2826;51.354;9.588;2022-09-17T01:33:14;97420.97;;;9.03;100.00
5609;BME280;2826;51.354;9.588;2022-09-17T01:35:49;97430.09;;;9.10;100.00
5609;BME280;2826;51.354;9.588;2022-09-17T01:38:25;97422.63;;;9.04;100.00
5609;BME280;2826;51.354;9.588;2022-09-17T01:40:58;97426.91;;;9.05;100.00
5609;BME280;2826;51.354;9.588;2022-09-17T01:43:35;97435.22;;;9.12;100.00
5609;BME280;2826;51.354;9.588;2022-09-17T01:46:10;97436.19;;;9.09;100.00
5609;BME280;2826;51.354;9.588;2022-09-17T01:48:41;97434.47;;;9.10;100.00
5609;BME280;2826;51.354;9.588;2022-09-17T01:51:13;97412.72;;;8.95;100.00
5609;BME280;2826;51.354;9.588;2022-09-17T01:53:44;97449.91;;;9.11;100.00
5609;BME280;2826;51.354;9.588;2022-09-17T01:56:19;97435.28;;;9.10;100.00
5609;BME280;2826;51.354;9.588;2022-09-17T01:58:53;97443.75;;;9.14;100.00
5609;BME280;2826;51.354;9.588;2022-09-17T02:01:23;97441.25;;;9.12;100.00
5609;BME280;2826;51.354;9.588;2022-09-17T02:03:58;97437.72;;;9.13;100.00
5609;BME280;2826;51.354;9.588;2022-09-17T02:06:29;97447.09;;;9.16;100.00
5609;BME280;2826;51.354;9.588;2022-09-17T02:09:01;97446.13;;;9.19;100.00
5609;BME280;2826;51.354;9.588;2022-09-17T02:11:32;97449.69;;;9.16;100.00
5609;BME280;2826;51.354;9.588;2022-09-17T02:14:05;97453.06;;;9.18;100.00
5609;BME280;2826;51.354;9.588;2022-09-17T02:16:36;97452.91;;;9.21;100.00
5609;BME280;2826;51.354;9.588;2022-09-17T02:19:09;97460.53;;;9.24;100.00
5609;BME280;2826;51.354;9.588;2022-09-17T02:21:41;97460.53;;;9.24;100.00
5609;BME280;2826;51.354;9.588;2022-09-17T02:24:16;97457.03;;;9.25;100.00
5609;BME280;2826;51.354;9.588;2022-09-17T02:26:49;97433.47;;;9.12;100.00
5609;BME280;2826;51.354;9.588;2022-09-17T02:29:22;97461.16;;;9.30;100.00
5609;BME280;2826;51.354;9.588;2022-09-17T02:31:52;97464.16;;;9.39;100.00
5609;BME280;2826;51.354;9.588;2022-09-17T02:34:19;97440.63;;;9.26;100.00
5609;BME280;2826;51.354;9.588;2022-09-17T02:36:47;97466.69;;;9.41;100.00
5609;BME280;2826;51.354;9.588;2022-09-17T02:39:13;97460.66;;;9.40;100.00
5609;BME280;2826;51.354;9.588;2022-09-17T02:41:55;97460.88;;;9.36;100.00
5609;BME280;2826;51.354;9.588;2022-09-17T02:44:30;97454.88;;;9.35;100.00
5609;BME280;2826;51.354;9.588;2022-09-17T02:47:26;97454.88;;;9.35;100.00
5609;BME280;2826;51.354;9.588;2022-09-17T02:50:07;97463.59;;;9.33;100.00
5609;BME280;2826;51.354;9.588;2022-09-17T02:52:48;97454.09;;;9.33;100.00
5609;BME280;2826;51.354;9.588;2022-09-17T02:55:24;97456.75;;;9.32;100.00
5609;BME280;2826;51.354;9.588;2022-09-17T02:58:00;97461.78;;;9.35;100.00
5609;BME280;2826;51.354;9.588;2022-09-17T03:00:30;97462.50;;;9.38;100.00
5609;BME280;2826;51.354;9.588;2022-09-17T03:03:01;97459.00;;;9.39;100.00
5609;BME280;2826;51.354;9.588;2022-09-17T03:05:30;97454.09;;;9.33;100.00
5609;BME280;2826;51.354;9.588;2022-09-17T03:07:58;97453.81;;;9.39;100.00
5609;BME280;2826;51.354;9.588;2022-09-17T03:10:25;97460.66;;;9.40;100.00
5609;BME280;2826;51.354;9.588;2022-09-17T03:12:53;97459.13;;;9.36;100.00
5609;BME280;2826;51.354;9.588;2022-09-17T03:15:19;97463.53;;;9.34;100.00
5609;BME280;2826;51.354;9.588;2022-09-17T03:17:46;97457.69;;;9.31;100.00
5609;BME280;2826;51.354;9.588;2022-09-17T03:20:14;97462.75;;;9.32;100.00
5609;BME280;2826;51.354;9.588;2022-09-17T03:22:41;97461.94;;;9.32;100.00
5609;BME280;2826;51.354;9.588;2022-09-17T03:25:08;97455.09;;;9.31;100.00
5609;BME280;2826;51.354;9.588;2022-09-17T03:27:36;97467.94;;;9.32;100.00
5609;BME280;2826;51.354;9.588;2022-09-17T03:30:04;97461.94;;;9.32;100.00
5609;BME280;2826;51.354;9.588;2022-09-17T03:32:31;97450.19;;;9.24;100.00
5609;BME280;2826;51.354;9.588;2022-09-17T03:34:58;97471.31;;;9.34;100.00
5609;BME280;2826;51.354;9.588;2022-09-17T03:37:26;97466.41;;;9.28;100.00
5609;BME280;2826;51.354;9.588;2022-09-17T03:39:53;97475.97;;;9.26;100.00
5609;BME280;2826;51.354;9.588;2022-09-17T03:42:20;97467.31;;;9.27;100.00
5609;BME280;2826;51.354;9.588;2022-09-17T03:44:47;97476.19;;;9.21;100.00
5609;BME280;2826;51.354;9.588;2022-09-17T03:47:13;97482.00;;;9.26;100.00
5609;BME280;2826;51.354;9.588;2022-09-17T03:49:41;97483.06;;;9.22;100.00
5609;BME280;2826;51.354;9.588;2022-09-17T03:52:07;97479.50;;;9.25;100.00
5609;BME280;2826;51.354;9.588;2022-09-17T03:54:36;97488.22;;;9.22;100.00
5609;BME280;2826;51.354;9.588;2022-09-17T03:57:02;97489.97;;;9.22;100.00
5609;BME280;2826;51.354;9.588;2022-09-17T03:59:29;97494.22;;;9.23;100.00
5609;BME280;2826;51.354;9.588;2022-09-17T04:01:56;97502.16;;;9.20;100.00
5609;BME280;2826;51.354;9.588;2022-09-17T04:04:23;97498.78;;;9.18;100.00
5609;BME280;2826;51.354;9.588;2022-09-17T04:06:49;97512.69;;;9.15;100.00
5609;BME280;2826;51.354;9.588;2022-09-17T04:09:16;97507.31;;;9.20;100.00
5609;BME280;2826;51.354;9.588;2022-09-17T04:11:44;97516.53;;;9.25;100.00
5609;BME280;2826;51.354;9.588;2022-09-17T04:14:11;97520.16;;;9.21;100.00
5609;BME280;2826;51.354;9.588;2022-09-17T04:16:38;97522.91;;;9.18;100.00
5609;BME280;2826;51.354;9.588;2022-09-17T04:19:05;97527.78;;;9.24;100.00
5609;BME280;2826;51.354;9.588;2022-09-17T04:21:31;97527.28;;;9.16;100.00
5609;BME280;2826;51.354;9.588;2022-09-17T04:23:58;97528.38;;;9.10;100.00
5609;BME280;2826;51.354;9.588;2022-09-17T04:26:25;97535.25;;;9.11;100.00
5609;BME280;2826;51.354;9.588;2022-09-17T04:28:53;97532.81;;;9.08;100.00
5609;BME280;2826;51.354;9.588;2022-09-17T04:31:20;97529.59;;;9.03;100.00
5609;BME280;2826;51.354;9.588;2022-09-17T04:33:49;97535.50;;;9.05;100.00
5609;BME280;2826;51.354;9.588;2022-09-17T04:36:16;97530.34;;;9.05;100.00
5609;BME280;2826;51.354;9.588;2022-09-17T04:38:43;97532.88;;;9.07;100.00
5609;BME280;2826;51.354;9.588;2022-09-17T04:41:09;97546.03;;;9.02;100.00
5609;BME280;2826;51.354;9.588;2022-09-17T04:43:36;97539.28;;;8.98;100.00
5609;BME280;2826;51.354;9.588;2022-09-17T04:46:04;97550.47;;;8.98;100.00
5609;BME280;2826;51.354;9.588;2022-09-17T04:48:31;97553.09;;;8.97;100.00
5609;BME280;2826;51.354;9.588;2022-09-17T04:50:57;97544.41;;;8.99;100.00
5609;BME280;2826;51.354;9.588;2022-09-17T04:53:24;97513.00;;;8.67;100.00
5609;BME280;2826;51.354;9.588;2022-09-17T04:55:51;97552.41;;;8.93;100.00
5609;BME280;2826;51.354;9.588;2022-09-17T04:58:18;97556.75;;;8.93;100.00
5609;BME280;2826;51.354;9.588;2022-09-17T05:00:44;97557.69;;;8.90;100.00
5609;BME280;2826;51.354;9.588;2022-09-17T05:03:13;97545.09;;;8.82;100.00
5609;BME280;2826;51.354;9.588;2022-09-17T05:05:39;97568.25;;;8.85;100.00
5609;BME280;2826;51.354;9.588;2022-09-17T05:08:06;97569.94;;;8.86;100.00
5609;BME280;2826;51.354;9.588;2022-09-17T05:10:33;97559.91;;;8.79;100.00
5609;BME280;2826;51.354;9.588;2022-09-17T05:13:00;97561.81;;;8.75;100.00
5609;BME280;2826;51.354;9.588;2022-09-17T05:15:27;97569.22;;;8.83;100.00
5609;BME280;2826;51.354;9.588;2022-09-17T05:17:54;97568.31;;;8.84;100.00
5609;BME280;2826;51.354;9.588;2022-09-17T05:20:22;97565.78;;;8.82;100.00
5609;BME280;2826;51.354;9.588;2022-09-17T05:22:50;97565.94;;;8.79;100.00
5609;BME280;2826;51.354;9.588;2022-09-17T05:25:18;97576.28;;;8.79;100.00
5609;BME280;2826;51.354;9.588;2022-09-17T05:27:49;97566.00;;;8.78;100.00
5609;BME280;2826;51.354;9.588;2022-09-17T05:30:15;97578.94;;;8.78;100.00
5609;BME280;2826;51.354;9.588;2022-09-17T05:32:42;97579.09;;;8.73;100.00
5609;BME280;2826;51.354;9.588;2022-09-17T05:35:09;97580.88;;;8.72;100.00
5609;BME280;2826;51.354;9.588;2022-09-17T05:37:37;97579.03;;;8.74;100.00
5609;BME280;2826;51.354;9.588;2022-09-17T05:40:06;97583.38;;;8.74;100.00
5609;BME280;2826;51.354;9.588;2022-09-17T05:42:33;97594.56;;;8.74;100.00
5609;BME280;2826;51.354;9.588;2022-09-17T05:45:00;97599.59;;;8.78;100.00
5609;BME280;2826;51.354;9.588;2022-09-17T05:47:27;97601.28;;;8.79;100.00
5609;BME280;2826;51.354;9.588;2022-09-17T05:49:54;97601.28;;;8.79;100.00
5609;BME280;2826;51.354;9.588;2022-09-17T05:52:21;97602.03;;;8.81;100.00
5609;BME280;2826;51.354;9.588;2022-09-17T05:54:49;97613.19;;;8.83;100.00
5609;BME280;2826;51.354;9.588;2022-09-17T05:57:16;97607.09;;;8.84;100.00
5609;BME280;2826;51.354;9.588;2022-09-17T05:59:44;97604.56;;;8.82;100.00
5609;BME280;2826;51.354;9.588;2022-09-17T06:02:12;97606.13;;;8.86;100.00
5609;BME280;2826;51.354;9.588;2022-09-17T06:04:38;97605.31;;;8.86;100.00
5609;BME280;2826;51.354;9.588;2022-09-17T06:07:06;97612.09;;;8.88;100.00
5609;BME280;2826;51.354;9.588;2022-09-17T06:09:33;97614.53;;;8.92;100.00
5609;BME280;2826;51.354;9.588;2022-09-17T06:12:02;97610.25;;;8.91;100.00
5609;BME280;2826;51.354;9.588;2022-09-17T06:14:29;97622.34;;;8.90;100.00
5609;BME280;2826;51.354;9.588;2022-09-17T06:16:56;97618.88;;;8.91;100.00
5609;BME280;2826;51.354;9.588;2022-09-17T06:19:23;97618.03;;;8.91;100.00
5609;BME280;2826;51.354;9.588;2022-09-17T06:21:50;97620.50;;;8.94;100.00
5609;BME280;2826;51.354;9.588;2022-09-17T06:24:16;97613.44;;;8.97;100.00
5609;BME280;2826;51.354;9.588;2022-09-17T06:26:43;97616.72;;;9.01;100.00
5609;BME280;2826;51.354;9.588;2022-09-17T06:29:11;97613.03;;;9.07;100.00
5609;BME280;2826;51.354;9.588;2022-09-17T06:31:39;97630.06;;;9.12;100.00
5609;BME280;2826;51.354;9.588;2022-09-17T06:34:26;97621.38;;;9.13;100.00
5609;BME280;2826;51.354;9.588;2022-09-17T06:36:53;97622.34;;;9.11;100.00
5609;BME280;2826;51.354;9.588;2022-09-17T06:39:19;97625.63;;;9.14;100.00
5609;BME280;2826;51.354;9.588;2022-09-17T06:41:46;97621.13;;;9.20;100.00
5609;BME280;2826;51.354;9.588;2022-09-17T06:44:15;97633.66;;;9.29;100.00
5609;BME280;2826;51.354;9.588;2022-09-17T06:46:42;97635.47;;;9.27;100.00
5609;BME280;2826;51.354;9.588;2022-09-17T06:49:09;97625.91;;;9.29;100.00
5609;BME280;2826;51.354;9.588;2022-09-17T06:51:36;97635.22;;;9.33;100.00
5609;BME280;2826;51.354;9.588;2022-09-17T06:54:02;97633.47;;;9.34;100.00
5609;BME280;2826;51.354;9.588;2022-09-17T06:56:29;97636.69;;;9.39;100.00
5609;BME280;2826;51.354;9.588;2022-09-17T06:58:58;97630.41;;;9.45;100.00
5609;BME280;2826;51.354;9.588;2022-09-17T07:01:27;97636.22;;;9.50;100.00
5609;BME280;2826;51.354;9.588;2022-09-17T07:03:53;97635.03;;;9.57;100.00
5609;BME280;2826;51.354;9.588;2022-09-17T07:06:20;97630.25;;;9.69;100.00
5609;BME280;2826;51.354;9.588;2022-09-17T07:08:47;97636.69;;;9.79;100.00
5609;BME280;2826;51.354;9.588;2022-09-17T07:11:14;97638.97;;;9.85;100.00
5609;BME280;2826;51.354;9.588;2022-09-17T07:13:41;97638.78;;;9.90;100.00
5609;BME280;2826;51.354;9.588;2022-09-17T07:16:09;97638.84;;;9.88;100.00
5609;BME280;2826;51.354;9.588;2022-09-17T07:18:37;97640.03;;;9.81;100.00
5609;BME280;2826;51.354;9.588;2022-09-17T07:21:06;97636.75;;;9.77;100.00
5609;BME280;2826;51.354;9.588;2022-09-17T07:23:34;97641.00;;;9.78;100.00
5609;BME280;2826;51.354;9.588;2022-09-17T07:26:03;97629.66;;;9.81;99.81
5609;BME280;2826;51.354;9.588;2022-09-17T07:28:30;97634.22;;;9.76;100.00
5609;BME280;2826;51.354;9.588;2022-09-17T07:30:57;97640.75;;;9.85;100.00
5609;BME280;2826;51.354;9.588;2022-09-17T07:33:25;97632.19;;;9.83;100.00
5609;BME280;2826;51.354;9.588;2022-09-17T07:35:55;97575.72;;;9.52;100.00
5609;BME280;2826;51.354;9.588;2022-09-17T07:38:23;97637.94;;;9.89;100.00
5609;BME280;2826;51.354;9.588;2022-09-17T07:40:55;97633.31;;;9.96;100.00
5609;BME280;2826;51.354;9.588;2022-09-17T07:43:23;97625.97;;;10.06;100.00
5609;BME280;2826;51.354;9.588;2022-09-17T07:45:50;97627.22;;;10.16;100.00
5609;BME280;2826;51.354;9.588;2022-09-17T07:48:17;97647.19;;;10.14;99.63
5609;BME280;2826;51.354;9.588;2022-09-17T07:50:44;97634.28;;;10.13;100.00
5609;BME280;2826;51.354;9.588;2022-09-17T07:53:12;97641.28;;;10.11;98.80
5609;BME280;2826;51.354;9.588;2022-09-17T07:55:40;97635.34;;;10.09;99.99
5609;BME280;2826;51.354;9.588;2022-09-17T07:58:07;97638.63;;;10.12;99.79
5609;BME280;2826;51.354;9.588;2022-09-17T08:00:34;97633.00;;;10.22;96.42
5609;BME280;2826;51.354;9.588;2022-09-17T08:03:01;97633.88;;;10.22;96.09
5609;BME280;2826;51.354;9.588;2022-09-17T08:05:28;97634.34;;;10.30;92.57
5609;BME280;2826;51.354;9.588;2022-09-17T08:07:54;97641.53;;;10.43;92.13
5609;BME280;2826;51.354;9.588;2022-09-17T08:10:22;97644.53;;;10.53;93.00
5609;BME280;2826;51.354;9.588;2022-09-17T08:12:55;97624.19;;;10.45;92.70
5609;BME280;2826;51.354;9.588;2022-09-17T08:15:23;97623.06;;;10.51;92.23
5609;BME280;2826;51.354;9.588;2022-09-17T08:17:50;97640.22;;;10.53;88.54
5609;BME280;2826;51.354;9.588;2022-09-17T08:20:17;97642.03;;;10.51;88.67
5609;BME280;2826;51.354;9.588;2022-09-17T08:22:44;97633.22;;;10.73;88.37
5609;BME280;2826;51.354;9.588;2022-09-17T08:25:11;97635.59;;;10.95;87.73
5609;BME280;2826;51.354;9.588;2022-09-17T08:27:39;97642.13;;;11.03;85.86
5609;BME280;2826;51.354;9.588;2022-09-17T08:30:07;97632.41;;;11.08;86.04
5609;BME280;2826;51.354;9.588;2022-09-17T08:32:34;97642.75;;;11.26;83.84
5609;BME280;2826;51.354;9.588;2022-09-17T08:35:01;97640.59;;;11.34;85.13
5609;BME280;2826;51.354;9.588;2022-09-17T08:37:28;97633.06;;;11.29;84.32
5609;BME280;2826;51.354;9.588;2022-09-17T08:39:55;97620.59;;;11.36;84.32
5609;BME280;2826;51.354;9.588;2022-09-17T08:42:26;97629.56;;;11.46;83.84
5609;BME280;2826;51.354;9.588;2022-09-17T08:44:58;97645.56;;;11.72;83.22
5609;BME280;2826;51.354;9.588;2022-09-17T08:47:32;97645.88;;;11.66;80.47
5609;BME280;2826;51.354;9.588;2022-09-17T08:50:03;97632.50;;;11.90;81.69
5609;BME280;2826;51.354;9.588;2022-09-17T08:52:47;97625.50;;;12.24;79.67
5609;BME280;2826;51.354;9.588;2022-09-17T08:55:29;97634.09;;;12.41;77.67
5609;BME280;2826;51.354;9.588;2022-09-17T08:58:13;97636.91;;;12.22;76.78
5609;BME280;2826;51.354;9.588;2022-09-17T09:00:50;97636.78;;;11.91;76.61
5609;BME280;2826;51.354;9.588;2022-09-17T09:03:28;97640.75;;;11.65;78.39
5609;BME280;2826;51.354;9.588;2022-09-17T09:06:00;97644.75;;;11.54;78.83
5609;BME280;2826;51.354;9.588;2022-09-17T09:08:29;97648.97;;;11.57;79.91
5609;BME280;2826;51.354;9.588;2022-09-17T09:10:58;97651.63;;;11.55;79.97
5609;BME280;2826;51.354;9.588;2022-09-17T09:13:28;97635.50;;;11.32;77.21
5609;BME280;2826;51.354;9.588;2022-09-17T09:15:59;97660.94;;;11.26;79.41
5609;BME280;2826;51.354;9.588;2022-09-17T09:18:28;97655.44;;;11.14;80.16
5609;BME280;2826;51.354;9.588;2022-09-17T09:21:02;97659.09;;;11.10;79.96
5609;BME280;2826;51.354;9.588;2022-09-17T09:23:41;97653.50;;;11.00;80.40
5609;BME280;2826;51.354;9.588;2022-09-17T09:26:15;97663.13;;;11.16;80.33
5609;BME280;2826;51.354;9.588;2022-09-17T09:29:03;97657.25;;;11.30;80.92
5609;BME280;2826;51.354;9.588;2022-09-17T09:31:49;97649.13;;;11.54;81.01
5609;BME280;2826;51.354;9.588;2022-09-17T09:34:21;97653.22;;;11.92;79.73
5609;BME280;2826;51.354;9.588;2022-09-17T09:36:50;97645.72;;;12.19;78.55
5609;BME280;2826;51.354;9.588;2022-09-17T09:39:20;97630.78;;;12.39;75.11
5609;BME280;2826;51.354;9.588;2022-09-17T09:41:52;97653.06;;;12.43;72.19
5609;BME280;2826;51.354;9.588;2022-09-17T09:44:23;97650.22;;;12.32;72.85
5609;BME280;2826;51.354;9.588;2022-09-17T09:47:06;97635.41;;;12.18;72.20
5609;BME280;2826;51.354;9.588;2022-09-17T09:49:52;97637.66;;;12.24;71.11
5609;BME280;2826;51.354;9.588;2022-09-17T09:52:33;97651.97;;;12.47;70.68
5609;BME280;2826;51.354;9.588;2022-09-17T09:55:18;97642.75;;;12.41;69.09
5609;BME280;2826;51.354;9.588;2022-09-17T09:57:49;97665.66;;;12.35;70.30
5609;BME280;2826;51.354;9.588;2022-09-17T10:00:26;97656.09;;;12.51;69.54
5609;BME280;2826;51.354;9.588;2022-09-17T10:02:59;97654.72;;;12.60;67.33
5609;BME280;2826;51.354;9.588;2022-09-17T10:05:28;97650.34;;;12.77;64.96
5609;BME280;2826;51.354;9.588;2022-09-17T10:07:56;97643.97;;;12.97;65.43
5609;BME280;2826;51.354;9.588;2022-09-17T10:10:23;97652.38;;;13.17;66.29
5609;BME280;2826;51.354;9.588;2022-09-17T10:13:04;97658.44;;;13.32;66.46
5609;BME280;2826;51.354;9.588;2022-09-17T10:15:31;97655.03;;;13.31;61.17
5609;BME280;2826;51.354;9.588;2022-09-17T10:18:13;97643.94;;;13.28;61.92
5609;BME280;2826;51.354;9.588;2022-09-17T10:20:49;97644.41;;;13.35;58.85
5609;BME280;2826;51.354;9.588;2022-09-17T10:23:16;97650.94;;;13.42;58.25
5609;BME280;2826;51.354;9.588;2022-09-17T10:25:43;97649.78;;;13.48;59.04
5609;BME280;2826;51.354;9.588;2022-09-17T10:28:27;97641.75;;;13.51;57.22
5609;BME280;2826;51.354;9.588;2022-09-17T10:30:56;97651.91;;;13.70;57.88
5609;BME280;2826;51.354;9.588;2022-09-17T10:33:26;97626.97;;;13.80;56.77
5609;BME280;2826;51.354;9.588;2022-09-17T10:36:00;97626.41;;;13.90;55.99
5609;BME280;2826;51.354;9.588;2022-09-17T10:38:30;97628.88;;;13.91;56.05
5609;BME280;2826;51.354;9.588;2022-09-17T10:41:18;97623.69;;;14.06;53.92
5609;BME280;2826;51.354;9.588;2022-09-17T10:43:47;97610.41;;;14.23;54.11
5609;BME280;2826;51.354;9.588;2022-09-17T10:46:17;97616.50;;;14.37;52.99
5609;BME280;2826;51.354;9.588;2022-09-17T10:48:56;97623.06;;;14.70;54.28
5609;BME280;2826;51.354;9.588;2022-09-17T10:51:25;97623.25;;;14.54;52.53
5609;BME280;2826;51.354;9.588;2022-09-17T10:54:21;97618.81;;;14.14;53.57
5609;BME280;2826;51.354;9.588;2022-09-17T10:56:54;97632.41;;;13.32;56.69
5609;BME280;2826;51.354;9.588;2022-09-17T10:59:40;97626.47;;;12.54;61.74
5609;BME280;2826;51.354;9.588;2022-09-17T11:02:34;97626.00;;;12.15;65.20
5609;BME280;2826;51.354;9.588;2022-09-17T11:05:24;97625.72;;;12.36;65.23
5609;BME280;2826;51.354;9.588;2022-09-17T11:08:00;97615.38;;;12.50;65.77
5609;BME280;2826;51.354;9.588;2022-09-17T11:10:35;97617.09;;;12.51;65.06
5609;BME280;2826;51.354;9.588;2022-09-17T11:13:13;97634.94;;;12.58;64.56
5609;BME280;2826;51.354;9.588;2022-09-17T11:15:57;97626.81;;;12.48;65.93
5609;BME280;2826;51.354;9.588;2022-09-17T11:18:34;97631.84;;;12.02;68.32
5609;BME280;2826;51.354;9.588;2022-09-17T11:21:15;97651.97;;;11.65;75.78
5609;BME280;2826;51.354;9.588;2022-09-17T11:24:10;97665.19;;;11.09;79.41
5609;BME280;2826;51.354;9.588;2022-09-17T11:26:48;97635.19;;;10.68;79.82
5609;BME280;2826;51.354;9.588;2022-09-17T11:29:39;97644.28;;;10.59;81.20
5609;BME280;2826;51.354;9.588;2022-09-17T11:32:20;97635.81;;;10.91;83.08
5609;BME280;2826;51.354;9.588;2022-09-17T11:34:55;97646.25;;;11.24;81.35
5609;BME280;2826;51.354;9.588;2022-09-17T11:37:27;97643.50;;;11.61;81.61
5609;BME280;2826;51.354;9.588;2022-09-17T11:39:59;97635.03;;;11.92;78.88
5609;BME280;2826;51.354;9.588;2022-09-17T11:42:31;97633.03;;;12.13;79.52
5609;BME280;2826;51.354;9.588;2022-09-17T11:45:03;97618.34;;;12.44;78.15
5609;BME280;2826;51.354;9.588;2022-09-17T11:47:33;97620.44;;;12.84;78.22
5609;BME280;2826;51.354;9.588;2022-09-17T11:50:03;97612.03;;;13.10;73.41
5609;BME280;2826;51.354;9.588;2022-09-17T11:52:40;97616.31;;;13.25;73.82
5609;BME280;2826;51.354;9.588;2022-09-17T11:55:18;97618.22;;;13.52;70.76
5609;BME280;2826;51.354;9.588;2022-09-17T11:57:48;97604.19;;;13.55;65.98
5609;BME280;2826;51.354;9.588;2022-09-17T12:00:18;97588.94;;;13.49;65.29
5609;BME280;2826;51.354;9.588;2022-09-17T12:02:50;97592.00;;;13.55;67.79
5609;BME280;2826;51.354;9.588;2022-09-17T12:05:20;97591.03;;;13.71;65.98
5609;BME280;2826;51.354;9.588;2022-09-17T12:07:53;97594.50;;;13.71;64.46
5609;BME280;2826;51.354;9.588;2022-09-17T12:10:37;97598.03;;;13.70;61.59
5609;BME280;2826;51.354;9.588;2022-09-17T12:13:17;97592.47;;;13.62;65.90
5609;BME280;2826;51.354;9.588;2022-09-17T12:15:47;97566.03;;;13.39;66.66
5609;BME280;2826;51.354;9.588;2022-09-17T12:18:26;97607.06;;;13.36;66.72
5609;BME280;2826;51.354;9.588;2022-09-17T12:20:59;97610.94;;;13.14;67.21
5609;BME280;2826;51.354;9.588;2022-09-17T12:23:35;97606.84;;;12.79;67.15
5609;BME280;2826;51.354;9.588;2022-09-17T12:26:11;97603.63;;;12.90;68.55
5609;BME280;2826;51.354;9.588;2022-09-17T12:28:47;97594.16;;;12.89;69.25
5609;BME280;2826;51.354;9.588;2022-09-17T12:31:22;97596.66;;;12.90;71.04
5609;BME280;2826;51.354;9.588;2022-09-17T12:33:56;97586.16;;;12.92;72.02
5609;BME280;2826;51.354;9.588;2022-09-17T12:36:34;97582.66;;;13.07;71.82
5609;BME280;2826;51.354;9.588;2022-09-17T12:39:16;97582.94;;;13.17;69.47
5609;BME280;2826;51.354;9.588;2022-09-17T12:41:55;97596.22;;;13.13;70.75
5609;BME280;2826;51.354;9.588;2022-09-17T12:44:39;97595.25;;;12.85;71.23
5609;BME280;2826;51.354;9.588;2022-09-17T12:47:24;97597.94;;;12.52;73.08
5609;BME280;2826;51.354;9.588;2022-09-17T12:50:12;97610.91;;;12.06;75.27
5609;BME280;2826;51.354;9.588;2022-09-17T12:52:53;97626.97;;;11.46;81.33
5609;BME280;2826;51.354;9.588;2022-09-17T12:55:34;97638.56;;;10.88;87.26
5609;BME280;2826;51.354;9.588;2022-09-17T12:58:08;97629.97;;;10.31;90.44
5609;BME280;2826;51.354;9.588;2022-09-17T13:00:43;97625.91;;;9.88;93.28
5609;BME280;2826;51.354;9.588;2022-09-17T13:03:18;97602.81;;;9.64;94.30
5609;BME280;2826;51.354;9.588;2022-09-17T13:08:58;97595.50;;;9.73;97.14
5609;BME280;2826;51.354;9.588;2022-09-17T13:14:45;97586.09;;;10.47;92.41
5609;BME280;2826;51.354;9.588;2022-09-17T13:17:19;97581.19;;;10.94;91.33
5609;BME280;2826;51.354;9.588;2022-09-17T13:19:55;97584.06;;;11.23;89.10
5609;BME280;2826;51.354;9.588;2022-09-17T13:22:28;97577.22;;;11.54;90.09
5609;BME280;2826;51.354;9.588;2022-09-17T13:25:03;97568.78;;;11.99;89.67
5609;BME280;2826;51.354;9.588;2022-09-17T13:27:32;97570.84;;;12.26;88.56
5609;BME280;2826;51.354;9.588;2022-09-17T13:30:03;97565.53;;;12.27;85.81
5609;BME280;2826;51.354;9.588;2022-09-17T13:32:50;97562.88;;;12.13;84.92
5609;BME280;2826;51.354;9.588;2022-09-17T13:35:46;97508.66;;;11.74;86.00
5609;BME280;2826;51.354;9.588;2022-09-17T13:38:15;97552.69;;;11.92;87.05
5609;BME280;2826;51.354;9.588;2022-09-17T13:40:42;97558.84;;;11.75;87.73
5609;BME280;2826;51.354;9.588;2022-09-17T13:43:13;97555.16;;;11.79;87.54
5609;BME280;2826;51.354;9.588;2022-09-17T13:48:53;97557.72;;;12.27;82.14
5609;BME280;2826;51.354;9.588;2022-09-17T13:51:43;97558.22;;;12.34;79.96
5609;BME280;2826;51.354;9.588;2022-09-17T13:54:13;97559.47;;;12.43;80.50
5609;BME280;2826;51.354;9.588;2022-09-17T13:56:43;97566.69;;;12.68;78.57
5609;BME280;2826;51.354;9.588;2022-09-17T13:59:15;97553.16;;;12.92;77.14